Terminal Aerodrome Forecast
Issued by NWS Bismarck, ND

Home | Current Version | Previous Version | Graphics & Text | Print | Product List | Glossary On
Versions: 1 2 3 4 5 6 7 8 9 10 11 12 13 14 15 16 17 18 19 20 21 22 23
022
FTUS43 KBIS 051721
TAFBIS
TAF
KBIS 051721Z 0518/0618 26009KT P6SM SCT150
     FM061300 23006KT P6SM SCT150 WS020/28030KT
     FM061600 25013G20KT P6SM BKN150=

USA.gov is the U.S. government's official web portal to all federal, state and local government web resources and services.